Time;durP1;ratioP1;P1;durP2;ratioP2;P2;SDS_P1;SDS_P2;PMS_P1;PMS_P2;Temp;Humidity;BMP_temperature;BMP_pressure;BME280_temperature;BME280_humidity;BME280_pressure;Samples;Min_cycle;Max_cycle;Signal;HPM_P1;HPM_P2
2020/12/23 00:01:12;;;;;;;2.88;1.13;;;;;;;5.93;100.00;98869.84;4938067;28;45391;-79
2020/12/23 00:03:37;;;;;;;3.30;1.20;;;;;;;5.89;100.00;98869.22;4937008;28;45315;-79
2020/12/23 00:06:03;;;;;;;3.90;0.93;;;;;;;5.91;100.00;98869.94;4938794;28;45416;-79
2020/12/23 00:08:28;;;;;;;2.20;0.80;;;;;;;5.80;100.00;98875.16;4937579;28;45354;-78
2020/12/23 00:10:56;;;;;;;1.48;0.80;;;;;;;5.86;100.00;98868.63;4939290;28;45477;-79
2020/12/23 00:13:21;;;;;;;2.10;0.80;;;;;;;5.86;100.00;98876.53;4938965;28;45207;-79
2020/12/23 00:15:47;;;;;;;2.70;1.00;;;;;;;5.84;100.00;98868.72;4939004;28;45402;-78
2020/12/23 00:18:12;;;;;;;2.80;1.40;;;;;;;5.84;100.00;98872.22;4938926;28;45297;-78
2020/12/23 00:20:37;;;;;;;2.42;1.23;;;;;;;5.86;100.00;98865.97;4938900;28;45285;-79
2020/12/23 00:23:03;;;;;;;3.75;1.63;;;;;;;5.91;100.00;98869.13;4953726;28;47889;-79
2020/12/23 00:25:28;;;;;;;3.92;1.20;;;;;;;5.86;100.00;98868.63;4938808;28;45315;-79
2020/12/23 00:27:54;;;;;;;1.73;1.00;;;;;;;5.82;100.00;98876.75;4937789;28;45631;-79
2020/12/23 00:30:20;;;;;;;1.95;0.80;;;;;;;5.70;100.00;98880.25;4938964;28;45418;-79
2020/12/23 00:32:46;;;;;;;2.05;1.25;;;;;;;5.70;100.00;98875.81;4937291;28;46968;-79
2020/12/23 00:35:12;;;;;;;2.03;1.35;;;;;;;5.73;100.00;98881.84;4937411;28;45412;-79
2020/12/23 00:37:37;;;;;;;2.38;1.30;;;;;;;5.69;100.00;98876.78;4938931;28;45459;-79
2020/12/23 00:40:04;;;;;;;2.50;1.08;;;;;;;5.70;100.00;98877.59;4937470;28;45328;-79
2020/12/23 00:42:29;;;;;;;4.60;1.30;;;;;;;5.71;100.00;98879.28;4939191;28;45354;-79
2020/12/23 00:44:54;;;;;;;3.00;1.30;;;;;;;5.75;100.00;98872.00;4942161;28;45243;-79
2020/12/23 00:47:20;;;;;;;3.42;1.60;;;;;;;5.78;100.00;98864.75;4942116;28;45311;-79
2020/12/23 00:49:45;;;;;;;4.88;1.60;;;;;;;5.79;100.00;98865.56;4941917;28;45620;-79
2020/12/23 00:52:11;;;;;;;2.60;1.13;;;;;;;5.79;100.00;98866.41;4941904;28;45364;-79
2020/12/23 00:54:37;;;;;;;4.45;1.27;;;;;;;5.78;100.00;98863.88;4940008;28;45712;-79
2020/12/23 00:57:03;;;;;;;3.15;1.27;;;;;;;5.81;100.00;98861.00;4941724;28;45256;-79
2020/12/23 00:59:29;;;;;;;3.55;1.10;;;;;;;5.79;100.00;98863.78;4942180;28;45337;-79
2020/12/23 01:02:01;;;;;;;3.28;1.00;;;;;;;5.78;100.00;98858.59;4941919;28;45323;-79
2020/12/23 01:04:28;;;;;;;3.72;1.30;;;;;;;5.81;100.00;98867.16;4939958;28;45279;-79
2020/12/23 01:06:53;;;;;;;2.05;1.10;;;;;;;5.82;100.00;98860.91;4953203;28;45362;-79
2020/12/23 01:09:19;;;;;;;6.18;1.23;;;;;;;5.82;100.00;98860.06;4948158;28;45336;-79
2020/12/23 01:11:44;;;;;;;1.42;0.93;;;;;;;5.80;100.00;98852.28;4941555;28;45363;-79
2020/12/23 01:14:10;;;;;;;5.63;1.30;;;;;;;5.78;100.00;98859.47;4941892;28;45352;-79
2020/12/23 01:16:35;;;;;;;3.55;1.20;;;;;;;5.80;100.00;98848.78;4941391;28;45485;-79
2020/12/23 01:19:01;;;;;;;2.85;1.63;;;;;;;5.81;100.00;98853.09;4941746;28;45436;-79
2020/12/23 01:21:27;;;;;;;2.85;1.40;;;;;;;5.82;100.00;98854.78;4940910;28;46529;-79
2020/12/23 01:23:52;;;;;;;4.47;1.40;;;;;;;5.87;100.00;98851.81;4941534;28;45346;-79
2020/12/23 01:26:18;;;;;;;2.38;1.02;;;;;;;5.89;100.00;98850.75;4941618;28;45369;-79
2020/12/23 01:28:46;;;;;;;5.05;1.20;;;;;;;5.85;100.00;98849.28;4941655;28;45220;-79
2020/12/23 01:31:11;;;;;;;1.90;1.15;;;;;;;5.83;100.00;98848.56;4939921;28;46928;-79
2020/12/23 01:33:37;;;;;;;2.58;1.20;;;;;;;5.84;100.00;98851.09;4941645;28;45292;-79
2020/12/23 01:36:02;;;;;;;2.33;1.30;;;;;;;5.87;100.00;98855.28;4941072;28;45298;-79
2020/12/23 01:38:28;;;;;;;2.10;1.27;;;;;;;5.88;100.00;98849.06;4941336;28;45424;-79
2020/12/23 01:41:02;;;;;;;6.60;1.25;;;;;;;5.85;100.00;98849.28;4939871;28;46875;-79
2020/12/23 01:43:28;;;;;;;1.88;1.23;;;;;;;5.91;100.00;98856.75;4941220;28;45350;-79
2020/12/23 01:45:54;;;;;;;2.13;1.15;;;;;;;5.91;100.00;98856.75;4941083;28;45357;-79
2020/12/23 01:48:25;;;;;;;6.75;3.55;;;;;;;5.90;100.00;98854.25;4941251;28;45314;-79
2020/12/23 01:50:51;;;;;;;7.32;2.78;;;;;;;5.95;100.00;98852.09;4941251;28;46283;-79
2020/12/23 01:53:17;;;;;;;2.33;1.40;;;;;;;5.97;100.00;98850.19;4939473;28;45299;-79
2020/12/23 01:55:47;;;;;;;5.47;1.50;;;;;;;5.96;100.00;98843.22;4938888;28;45393;-79
2020/12/23 01:58:14;;;;;;;3.05;1.63;;;;;;;5.91;100.00;98842.72;4939629;28;45362;-79
2020/12/23 02:00:41;;;;;;;3.67;1.50;;;;;;;5.82;100.00;98849.50;4940868;28;45445;-79
2020/12/23 02:03:10;;;;;;;2.15;1.27;;;;;;;5.88;100.00;98850.88;4940537;28;45302;-79
2020/12/23 02:05:41;;;;;;;4.35;1.00;;;;;;;5.57;100.00;98848.63;4954876;28;45376;-79
2020/12/23 02:08:07;;;;;;;1.73;0.98;;;;;;;5.62;100.00;98850.94;4940621;28;45392;-79
2020/12/23 02:10:32;;;;;;;1.90;0.80;;;;;;;5.55;100.00;98856.66;4941197;28;45263;-79
2020/12/23 02:12:59;;;;;;;1.73;0.65;;;;;;;5.41;100.00;98843.59;4940506;28;45378;-79
2020/12/23 02:15:24;;;;;;;3.80;1.30;;;;;;;5.37;100.00;98850.03;4940995;28;45446;-79
2020/12/23 02:17:50;;;;;;;1.08;0.80;;;;;;;5.46;100.00;98845.91;4939020;28;45676;-79
2020/12/23 02:20:16;;;;;;;2.78;0.82;;;;;;;5.51;100.00;98841.16;4940749;28;45547;-79
2020/12/23 02:22:43;;;;;;;1.73;1.00;;;;;;;5.47;100.00;98843.16;4940584;28;45388;-79
2020/12/23 02:25:09;;;;;;;3.30;1.20;;;;;;;5.47;100.00;98837.88;4940215;28;45547;-79
2020/12/23 02:27:35;;;;;;;2.53;0.77;;;;;;;5.47;100.00;98839.69;4955532;28;45239;-79
2020/12/23 02:30:02;;;;;;;2.70;1.23;;;;;;;5.50;100.00;98845.56;4940631;28;45357;-79
2020/12/23 02:32:27;;;;;;;3.75;1.23;;;;;;;5.59;100.00;98822.97;4940580;28;45270;-79
2020/12/23 02:34:53;;;;;;;1.95;1.10;;;;;;;5.60;100.00;98818.53;4940389;28;45410;-79
2020/12/23 02:37:20;;;;;;;2.22;1.10;;;;;;;5.59;100.00;98822.13;4940404;28;45315;-79
2020/12/23 02:39:48;;;;;;;2.75;1.20;;;;;;;5.61;100.00;98818.44;4939858;28;45450;-79
2020/12/23 02:42:14;;;;;;;3.58;1.58;;;;;;;5.65;100.00;98819.91;4955085;28;45255;-79
2020/12/23 02:44:39;;;;;;;5.20;1.73;;;;;;;5.63;100.00;98815.66;4940603;28;45480;-79
2020/12/23 02:47:12;;;;;;;4.40;1.50;;;;;;;5.65;100.00;98813.75;4940309;28;45579;-79
2020/12/23 02:49:38;;;;;;;4.68;1.08;;;;;;;5.67;100.00;98809.22;4940331;28;45438;-79
2020/12/23 02:52:05;;;;;;;3.05;0.93;;;;;;;5.59;100.00;98803.66;4940261;28;45308;-79
2020/12/23 02:54:30;;;;;;;3.22;1.00;;;;;;;5.65;100.00;98800.56;4939596;28;45308;-79
2020/12/23 02:56:56;;;;;;;2.25;1.20;;;;;;;5.67;100.00;98798.66;4940217;28;45243;-79
2020/12/23 02:59:21;;;;;;;1.42;1.02;;;;;;;5.67;100.00;98804.78;4938961;28;48479;-79
2020/12/23 03:01:47;;;;;;;4.88;2.17;;;;;;;5.65;100.00;98790.00;4939989;28;45349;-79
2020/12/23 03:04:12;;;;;;;3.35;1.10;;;;;;;5.63;100.00;98787.50;4936902;28;45333;-79
2020/12/23 03:06:38;;;;;;;4.32;1.27;;;;;;;5.61;100.00;98788.56;4939792;28;45411;-79
2020/12/23 03:09:05;;;;;;;3.15;1.10;;;;;;;5.64;100.00;98788.31;4939369;28;45770;-79
2020/12/23 03:11:31;;;;;;;1.80;1.30;;;;;;;5.61;100.00;98783.28;4939723;28;45378;-80
2020/12/23 03:13:57;;;;;;;3.47;1.05;;;;;;;5.62;100.00;98777.91;4938854;28;45397;-79
2020/12/23 03:16:22;;;;;;;2.13;1.13;;;;;;;5.67;100.00;98777.56;4939659;28;45405;-79
2020/12/23 03:18:48;;;;;;;1.55;1.00;;;;;;;5.62;100.00;98775.25;4939813;28;45286;-79
2020/12/23 03:21:14;;;;;;;1.65;0.98;;;;;;;5.63;100.00;98773.44;4939703;28;45280;-79
2020/12/23 03:23:39;;;;;;;2.90;0.88;;;;;;;5.67;100.00;98759.06;4939948;28;45284;-79
2020/12/23 03:26:05;;;;;;;1.73;1.00;;;;;;;5.67;100.00;98748.53;4939847;28;45636;-79
2020/12/23 03:28:32;;;;;;;2.72;0.80;;;;;;;5.59;100.00;98757.00;4939861;28;45973;-79
2020/12/23 03:30:57;;;;;;;1.15;0.82;;;;;;;5.55;100.00;98752.91;4939552;28;45314;-79
2020/12/23 03:33:23;;;;;;;2.15;0.98;;;;;;;5.52;100.00;98753.97;4954718;28;45346;-79
2020/12/23 03:35:48;;;;;;;2.67;1.00;;;;;;;5.50;100.00;98755.06;4937640;28;45613;-79
2020/12/23 03:38:14;;;;;;;1.17;0.80;;;;;;;5.50;100.00;98755.06;4938854;28;46056;-79
2020/12/23 03:40:39;;;;;;;2.30;1.48;;;;;;;5.52;100.00;98745.22;4954215;28;45311;-79
2020/12/23 03:43:05;;;;;;;2.30;1.40;;;;;;;5.54;100.00;98744.16;4938356;28;45351;-79
2020/12/23 03:45:30;;;;;;;3.40;1.50;;;;;;;5.51;100.00;98751.47;4939211;28;45322;-79
2020/12/23 03:47:56;;;;;;;2.97;1.77;;;;;;;5.48;100.00;98741.97;4954141;28;47850;-79
2020/12/23 03:50:21;;;;;;;4.43;1.45;;;;;;;5.49;100.00;98746.28;4939376;28;45380;-79
2020/12/23 03:52:47;;;;;;;4.60;0.93;;;;;;;5.43;100.00;98746.72;4939656;28;45413;-79
2020/12/23 03:55:12;;;;;;;3.28;0.90;;;;;;;5.40;100.00;98744.31;4938092;28;45363;-79
2020/12/23 03:57:39;;;;;;;3.83;0.95;;;;;;;5.45;100.00;98736.91;4939577;28;45326;-79
2020/12/23 04:00:06;;;;;;;2.00;0.90;;;;;;;5.48;100.00;98735.84;4939319;28;45240;-79
2020/12/23 04:02:32;;;;;;;1.15;0.80;;;;;;;5.49;100.00;98748.09;4939497;28;45453;-79
2020/12/23 04:04:57;;;;;;;3.60;0.98;;;;;;;5.51;100.00;98741.72;4937267;28;45350;-79
2020/12/23 04:07:22;;;;;;;3.10;0.90;;;;;;;5.59;100.00;98738.53;4937309;28;45496;-79
2020/12/23 04:09:48;;;;;;;3.03;1.30;;;;;;;5.59;100.00;98725.34;4937533;28;45522;-79
2020/12/23 04:12:13;;;;;;;8.18;1.80;;;;;;;5.62;100.00;98726.91;4938823;28;45417;-77
2020/12/23 04:14:39;;;;;;;2.80;1.02;;;;;;;5.62;100.00;98726.91;4938718;28;45358;-79
2020/12/23 04:17:04;;;;;;;1.65;0.95;;;;;;;5.63;100.00;98724.16;4937880;28;46118;-78
2020/12/23 04:19:30;;;;;;;3.67;1.10;;;;;;;5.65;100.00;98726.69;4942323;28;45509;-77
2020/12/23 04:21:55;;;;;;;2.50;0.80;;;;;;;5.61;100.00;98727.84;4942549;28;45360;-78
2020/12/23 04:24:20;;;;;;;1.50;1.00;;;;;;;5.55;100.00;98731.81;4933059;28;45316;-79
2020/12/23 04:26:46;;;;;;;2.55;1.73;;;;;;;5.51;100.00;98744.38;4936698;28;45432;-79
2020/12/23 04:29:11;;;;;;;3.22;1.60;;;;;;;5.51;100.00;98733.81;4939466;28;45433;-79
2020/12/23 04:31:36;;;;;;;2.63;1.02;;;;;;;5.55;100.00;98743.19;4942401;28;45272;-79
2020/12/23 04:34:02;;;;;;;3.35;1.05;;;;;;;5.52;100.00;98727.59;4957436;28;45744;-79
2020/12/23 04:36:27;;;;;;;1.88;0.70;;;;;;;5.48;100.00;98733.22;4940751;28;47784;-79
2020/12/23 04:38:53;;;;;;;4.50;0.95;;;;;;;5.55;100.00;98726.53;4942196;28;45363;-79
2020/12/23 04:41:18;;;;;;;1.17;0.70;;;;;;;5.55;100.00;98735.28;4942364;28;45591;-79
2020/12/23 04:43:43;;;;;;;0.90;0.57;;;;;;;5.56;100.00;98733.50;4967415;28;45476;-79
2020/12/23 04:46:13;;;;;;;2.70;0.70;;;;;;;5.55;100.00;98729.16;4937880;28;45251;-79
2020/12/23 04:48:42;;;;;;;2.35;0.80;;;;;;;5.55;100.00;98721.25;4941030;28;45597;-79
2020/12/23 04:51:13;;;;;;;1.45;0.60;;;;;;;5.50;100.00;98724.22;4942233;28;45259;-79
2020/12/23 04:53:39;;;;;;;2.95;0.80;;;;;;;5.55;100.00;98708.88;4940532;28;45628;-79
2020/12/23 04:56:05;;;;;;;2.97;0.90;;;;;;;5.57;100.00;98710.56;4940840;28;46639;-79
2020/12/23 04:58:31;;;;;;;3.55;1.23;;;;;;;5.57;100.00;98722.00;4940874;28;45529;-79
2020/12/23 05:00:56;;;;;;;1.67;0.95;;;;;;;5.49;100.00;98722.53;4941988;28;45338;-79
2020/12/23 05:03:22;;;;;;;1.05;0.80;;;;;;;5.47;100.00;98707.78;4940089;28;45583;-79
2020/12/23 05:05:47;;;;;;;2.58;0.88;;;;;;;5.43;100.00;98720.34;4941786;28;46053;-79
2020/12/23 05:08:12;;;;;;;2.40;0.90;;;;;;;5.47;100.00;98708.63;4941440;28;45401;-79
2020/12/23 05:10:41;;;;;;;2.08;1.08;;;;;;;5.47;100.00;98715.69;4942339;28;45503;-79
2020/12/23 05:13:06;;;;;;;1.92;1.20;;;;;;;5.54;100.00;98709.84;4941781;28;45548;-79
2020/12/23 05:15:33;;;;;;;3.35;0.90;;;;;;;5.53;100.00;98712.63;4941958;28;46212;-78
2020/12/23 05:18:01;;;;;;;1.98;0.73;;;;;;;5.44;100.00;98724.66;4941269;28;45282;-79
2020/12/23 05:20:27;;;;;;;3.72;0.90;;;;;;;5.46;100.00;98716.66;4941911;28;45270;-79
2020/12/23 05:22:53;;;;;;;2.72;1.00;;;;;;;5.52;100.00;98722.31;4941409;28;45263;-79
2020/12/23 05:25:18;;;;;;;1.55;0.90;;;;;;;5.47;100.00;98720.97;4941781;28;46651;-79
2020/12/23 05:27:48;;;;;;;3.65;1.10;;;;;;;5.48;100.00;98720.84;4941568;28;45331;-79
2020/12/23 05:30:14;;;;;;;3.30;1.05;;;;;;;5.43;100.00;98722.16;4941677;28;45409;-79
2020/12/23 05:32:40;;;;;;;0.90;0.75;;;;;;;5.27;100.00;98717.97;4941447;28;45303;-79
2020/12/23 05:35:06;;;;;;;2.20;0.77;;;;;;;5.32;100.00;98715.00;4941578;28;46355;-79
2020/12/23 05:37:32;;;;;;;1.20;0.90;;;;;;;5.35;100.00;98717.41;4941289;28;45502;-79
2020/12/23 05:39:58;;;;;;;2.35;1.08;;;;;;;5.35;100.00;98709.50;4941530;28;45340;-79
2020/12/23 05:42:26;;;;;;;1.63;1.05;;;;;;;5.30;100.00;98719.56;4939969;28;45489;-79
2020/12/23 05:44:55;;;;;;;1.42;1.02;;;;;;;5.36;100.00;98696.22;4939862;28;47735;-79
2020/12/23 05:47:25;;;;;;;3.88;0.80;;;;;;;5.39;100.00;98703.06;4939873;28;45407;-79
2020/12/23 05:49:52;;;;;;;2.60;1.00;;;;;;;5.42;100.00;98694.91;4941607;28;45156;-79
2020/12/23 05:52:21;;;;;;;1.90;0.90;;;;;;;5.43;100.00;98701.06;4941445;28;45548;-79
2020/12/23 05:54:50;;;;;;;3.72;1.83;;;;;;;5.47;100.00;98700.69;4955296;28;47118;-79
2020/12/23 05:57:16;;;;;;;1.50;0.70;;;;;;;5.50;100.00;98689.09;4941366;28;45350;-79
2020/12/23 05:59:42;;;;;;;2.67;0.93;;;;;;;5.52;100.00;98698.56;4941301;28;45251;-79
2020/12/23 06:02:09;;;;;;;3.03;0.80;;;;;;;5.47;100.00;98692.78;4939808;28;45218;-79
2020/12/23 06:04:36;;;;;;;2.05;0.68;;;;;;;5.50;100.00;98689.09;4937645;28;45531;-79
2020/12/23 06:07:05;;;;;;;3.28;0.90;;;;;;;5.51;100.00;98688.13;4935740;28;45472;-79
2020/12/23 06:09:37;;;;;;;3.05;0.70;;;;;;;5.51;100.00;98690.78;4940102;28;45301;-79
2020/12/23 06:12:16;;;;;;;1.42;0.70;;;;;;;5.50;100.00;98695.19;4940146;28;45456;-79
2020/12/23 06:14:50;;;;;;;0.80;0.60;;;;;;;5.51;100.00;98683.69;4940035;28;46357;-79
2020/12/23 06:17:18;;;;;;;0.98;0.65;;;;;;;5.46;100.00;98685.81;4939742;28;45306;-79
2020/12/23 06:19:48;;;;;;;2.05;0.50;;;;;;;5.46;100.00;98675.28;4940055;28;45346;-79
2020/12/23 06:22:13;;;;;;;4.55;1.00;;;;;;;5.47;100.00;98679.59;4940054;28;45223;-79
2020/12/23 06:24:39;;;;;;;2.47;0.80;;;;;;;5.48;100.00;98678.63;4939649;28;46673;-79
2020/12/23 06:27:09;;;;;;;2.95;0.82;;;;;;;5.41;100.00;98677.41;4940036;28;45307;-79
2020/12/23 06:29:46;;;;;;;1.77;0.80;;;;;;;5.26;100.00;98682.84;4938947;28;45458;-79
2020/12/23 06:32:23;;;;;;;3.88;1.40;;;;;;;5.28;100.00;98674.00;4939833;28;45421;-79
2020/12/23 06:35:14;;;;;;;5.80;1.50;;;;;;;5.19;100.00;98686.91;4939966;28;46203;-80
2020/12/23 06:37:39;;;;;;;4.38;1.90;;;;;;;5.02;100.00;98682.00;4936016;28;46190;-79
2020/12/23 06:40:11;;;;;;;2.60;1.20;;;;;;;4.87;100.00;98682.16;4938919;28;45353;-79
2020/12/23 06:42:45;;;;;;;5.78;3.20;;;;;;;5.02;100.00;98674.09;4940031;28;45356;-79
2020/12/23 06:45:13;;;;;;;1.20;0.80;;;;;;;5.10;100.00;98679.66;4939442;28;45441;-79
2020/12/23 06:47:39;;;;;;;6.05;1.70;;;;;;;5.08;100.00;98682.38;4938636;28;45723;-79
2020/12/23 06:50:26;;;;;;;3.25;2.15;;;;;;;5.09;100.00;98677.97;4939719;28;45465;-79
2020/12/23 06:52:51;;;;;;;2.08;1.30;;;;;;;4.97;100.00;98675.25;4939358;28;45384;-78
2020/12/23 06:55:17;;;;;;;2.25;1.50;;;;;;;4.92;100.00;98677.38;4937893;28;46980;-79
2020/12/23 06:57:44;;;;;;;2.17;1.10;;;;;;;5.02;100.00;98671.44;4939704;28;45323;-79
2020/12/23 07:00:23;;;;;;;1.98;1.27;;;;;;;5.00;100.00;98682.09;4939395;28;45235;-79
2020/12/23 07:02:56;;;;;;;1.63;0.88;;;;;;;5.03;100.00;98678.41;4939356;28;45394;-78
2020/12/23 07:05:21;;;;;;;2.45;0.95;;;;;;;4.99;100.00;98672.50;4937476;28;45277;-79
2020/12/23 07:07:49;;;;;;;2.97;1.58;;;;;;;4.67;100.00;98676.47;4939185;28;45366;-79
2020/12/23 07:10:20;;;;;;;3.13;1.27;;;;;;;4.94;100.00;98672.00;4939537;28;45497;-79
2020/12/23 07:12:56;;;;;;;1.40;1.13;;;;;;;4.82;100.00;98687.72;4939202;28;45520;-79
2020/12/23 07:15:24;;;;;;;4.80;1.98;;;;;;;4.62;100.00;98680.41;4939176;28;46154;-79
2020/12/23 07:17:51;;;;;;;23.75;5.78;;;;;;;4.48;100.00;98678.72;4937323;28;45714;-86
2020/12/23 07:20:20;;;;;;;8.70;4.35;;;;;;;4.55;100.00;98673.88;4937426;28;45481;-83
2020/12/23 07:22:50;;;;;;;3.70;2.10;;;;;;;4.57;100.00;98672.81;4965451;28;45603;-87
2020/12/23 07:25:26;;;;;;;4.70;2.10;;;;;;;4.72;100.00;98675.31;4939521;28;45534;-80
2020/12/23 07:27:55;;;;;;;18.27;12.00;;;;;;;4.73;100.00;98676.97;4939144;28;45481;-81
2020/12/23 07:30:22;;;;;;;3.90;1.70;;;;;;;4.80;100.00;98675.59;4939081;28;45707;-79
2020/12/23 07:33:08;;;;;;;1.70;1.30;;;;;;;4.90;100.00;98670.53;4937669;28;45254;-81
2020/12/23 07:35:34;;;;;;;2.13;1.10;;;;;;;4.94;100.00;98677.25;4937524;28;47031;-80
2020/12/23 07:38:01;;;;;;;4.15;1.65;;;;;;;5.01;100.00;98669.78;4937431;28;45322;-82
2020/12/23 07:40:28;;;;;;;3.30;1.48;;;;;;;4.96;100.00;98673.56;4939145;28;45390;-79
2020/12/23 07:42:56;;;;;;;4.03;1.75;;;;;;;4.84;100.00;98674.44;4933411;28;45541;-79
2020/12/23 07:45:22;;;;;;;16.42;4.07;;;;;;;4.16;100.00;98681.78;4937578;28;46153;-79
2020/12/23 07:47:58;;;;;;;6.63;3.55;;;;;;;4.27;100.00;98683.66;4938777;28;45421;-78
2020/12/23 07:50:26;;;;;;;5.55;3.53;;;;;;;4.39;100.00;98685.44;4953425;28;45310;-78
2020/12/23 07:52:52;;;;;;;92.13;11.00;;;;;;;4.02;100.00;98678.31;4937272;28;45345;-79
2020/12/23 07:55:20;;;;;;;216.13;14.98;;;;;;;4.10;100.00;98683.03;4938094;28;46149;-79
2020/12/23 07:57:48;;;;;;;171.02;16.08;;;;;;;3.91;100.00;98691.31;4952754;28;45574;-77
2020/12/23 08:00:14;;;;;;;186.93;19.00;;;;;;;3.54;100.00;98691.13;4937076;28;45396;-76
2020/12/23 08:02:41;;;;;;;19.08;8.45;;;;;;;3.89;100.00;98683.53;4931464;28;45549;-77
2020/12/23 08:05:09;;;;;;;5.68;4.28;;;;;;;4.09;100.00;98684.84;4935055;28;45436;-76
2020/12/23 08:07:42;;;;;;;6.80;4.32;;;;;;;4.29;100.00;98684.41;4936135;28;45512;-75
2020/12/23 08:10:14;;;;;;;4.15;3.53;;;;;;;4.51;100.00;98694.31;4932604;28;45548;-75
2020/12/23 08:12:41;;;;;;;5.70;2.88;;;;;;;4.58;100.00;98690.28;4934112;28;45492;-75
2020/12/23 08:15:12;;;;;;;6.05;2.95;;;;;;;4.74;100.00;98683.94;4937238;28;45481;-75
2020/12/23 08:17:38;;;;;;;50.60;15.32;;;;;;;4.57;100.00;98688.59;4935435;28;45675;-82
2020/12/23 08:20:06;;;;;;;14.80;8.48;;;;;;;4.14;100.00;98691.56;4937454;28;45407;-84
2020/12/23 08:22:33;;;;;;;209.35;25.98;;;;;;;3.70;100.00;98697.06;4935958;28;45552;-84
2020/12/23 08:25:07;;;;;;;12.32;8.25;;;;;;;3.62;100.00;98692.34;4935029;28;46949;-82
2020/12/23 08:27:34;;;;;;;46.00;17.33;;;;;;;3.94;100.00;98693.75;4933230;28;45544;-82
2020/12/23 08:30:01;;;;;;;25.42;12.43;;;;;;;3.76;100.00;98698.47;4951920;28;45481;-82
2020/12/23 08:32:33;;;;;;;145.40;20.50;;;;;;;3.41;100.00;98698.97;4936536;28;45639;-83
2020/12/23 08:35:00;;;;;;;190.93;27.10;;;;;;;3.80;100.00;98692.06;4937876;28;46154;-81
2020/12/23 08:37:26;;;;;;;18.70;11.98;;;;;;;3.94;100.00;98697.22;4935874;28;45585;-80
2020/12/23 08:39:58;;;;;;;132.30;17.33;;;;;;;3.23;100.00;98707.09;4937466;28;45449;-80
2020/12/23 08:42:24;;;;;;;40.90;11.30;;;;;;;3.70;100.00;98694.44;4937368;28;45398;-80
2020/12/23 08:44:53;;;;;;;42.25;11.85;;;;;;;3.87;100.00;98703.00;4937828;28;46002;-79
2020/12/23 08:47:24;;;;;;;39.53;12.07;;;;;;;4.18;100.00;98698.31;4936279;28;45354;-81
2020/12/23 08:49:52;;;;;;;15.63;9.18;;;;;;;4.29;100.00;98692.31;4938671;28;45523;-86
2020/12/23 08:52:19;;;;;;;53.55;13.70;;;;;;;4.05;99.88;98693.88;4962176;28;45322;-87
2020/12/23 08:54:45;;;;;;;14.77;10.68;;;;;;;4.31;100.00;98693.91;4953304;28;46958;-84
2020/12/23 08:57:34;;;;;;;54.63;15.07;;;;;;;3.92;99.08;98693.88;4937527;28;45442;-86
2020/12/23 08:59:59;;;;;;;15.45;9.20;;;;;;;4.05;100.00;98687.75;4964665;28;45445;-85
2020/12/23 09:02:33;;;;;;;20.75;11.68;;;;;;;4.38;100.00;98681.13;4938088;28;45919;-84
2020/12/23 09:05:17;;;;;;;13.45;9.93;;;;;;;4.75;100.00;98672.44;4938862;28;45566;-84
2020/12/23 09:07:43;;;;;;;13.50;9.82;;;;;;;4.81;100.00;98679.91;4941800;28;45412;-82
2020/12/23 09:10:12;;;;;;;14.95;12.38;;;;;;;4.81;100.00;98688.69;4941339;28;45505;-84
2020/12/23 09:12:37;;;;;;;9.30;6.57;;;;;;;5.13;100.00;98673.28;4941425;28;45762;-84
2020/12/23 09:15:12;;;;;;;8.48;5.78;;;;;;;5.38;100.00;98672.38;4941236;28;45526;-85
2020/12/23 09:17:37;;;;;;;15.20;9.68;;;;;;;5.28;100.00;98672.19;4941293;28;45720;-84
2020/12/23 09:20:04;;;;;;;10.82;7.45;;;;;;;5.45;100.00;98670.13;4942659;28;45501;-87
2020/12/23 09:22:38;;;;;;;12.40;8.80;;;;;;;5.21;100.00;98697.31;4942096;28;45501;-87
2020/12/23 09:25:10;;;;;;;14.90;10.45;;;;;;;5.52;100.00;98685.38;4942356;28;46434;-88
2020/12/23 09:27:36;;;;;;;12.57;7.32;;;;;;;5.73;100.00;98687.38;4938048;28;45380;-88
2020/12/23 09:30:01;;;;;;;11.68;7.97;;;;;;;5.74;100.00;98689.03;4955881;28;45392;-85
2020/12/23 09:32:26;;;;;;;16.42;11.13;;;;;;;5.93;100.00;98672.69;4935126;28;45709;-84
2020/12/23 09:34:52;;;;;;;13.20;9.52;;;;;;;6.04;100.00;98690.41;4941872;28;45524;-83
2020/12/23 09:37:28;;;;;;;57.00;27.55;;;;;;;5.58;98.29;98696.44;4939420;28;45614;-77
2020/12/23 09:39:54;;;;;;;29.98;18.98;;;;;;;5.77;100.00;98695.91;4940017;28;45411;-77
2020/12/23 09:42:19;;;;;;;27.67;18.92;;;;;;;5.72;99.13;98696.25;4939108;28;45516;-78
2020/12/23 09:44:45;;;;;;;26.45;18.02;;;;;;;5.63;100.00;98703.06;4939895;28;45613;-77
2020/12/23 09:47:10;;;;;;;29.30;18.95;;;;;;;5.87;100.00;98680.25;4939140;28;46143;-77
2020/12/23 09:49:36;;;;;;;23.85;16.73;;;;;;;6.01;100.00;98679.22;4939983;28;45413;-78
2020/12/23 09:52:01;;;;;;;22.83;16.13;;;;;;;5.74;100.00;98686.41;4939945;28;45615;-81
2020/12/23 09:54:27;;;;;;;19.63;13.57;;;;;;;6.14;100.00;98679.94;4937912;28;45615;-81
2020/12/23 09:56:53;;;;;;;15.10;10.50;;;;;;;6.17;100.00;98674.44;4940029;28;45469;-80
2020/12/23 09:59:20;;;;;;;10.82;7.60;;;;;;;6.19;100.00;98663.78;4940547;28;45534;-80
2020/12/23 10:01:46;;;;;;;11.43;7.03;;;;;;;6.37;100.00;98661.50;4940419;28;45355;-80
2020/12/23 10:04:12;;;;;;;9.13;6.40;;;;;;;6.54;100.00;98655.75;4938136;28;45493;-81
2020/12/23 10:06:37;;;;;;;10.55;7.05;;;;;;;6.58;100.00;98669.53;4940380;28;45417;-79
2020/12/23 10:09:04;;;;;;;18.63;12.25;;;;;;;6.35;100.00;98661.63;4931879;28;45666;-80
2020/12/23 10:11:30;;;;;;;18.85;12.68;;;;;;;6.16;100.00;98651.63;4940087;28;45431;-79
2020/12/23 10:13:56;;;;;;;24.90;14.70;;;;;;;6.32;100.00;98635.44;4940138;28;46359;-80
2020/12/23 10:16:22;;;;;;;26.45;16.23;;;;;;;6.01;100.00;98643.09;4938543;28;45410;-80
2020/12/23 10:18:47;;;;;;;24.95;15.50;;;;;;;5.99;100.00;98655.53;4940466;28;45462;-80
2020/12/23 10:21:13;;;;;;;24.83;15.88;;;;;;;5.90;100.00;98648.31;4939591;28;45492;-79
2020/12/23 10:23:38;;;;;;;25.65;16.08;;;;;;;6.07;100.00;98642.63;4939198;28;45426;-78
2020/12/23 10:26:04;;;;;;;21.55;14.13;;;;;;;6.18;100.00;98630.41;4939990;28;45375;-78
2020/12/23 10:28:29;;;;;;;23.13;15.88;;;;;;;6.49;100.00;98625.34;4938744;28;45431;-79
2020/12/23 10:30:55;;;;;;;21.95;15.43;;;;;;;6.61;100.00;98629.66;4939699;28;45656;-78
2020/12/23 10:33:20;;;;;;;24.98;14.90;;;;;;;6.51;100.00;98624.28;4939750;28;45417;-80
2020/12/23 10:35:46;;;;;;;24.38;15.68;;;;;;;6.76;100.00;98637.38;4939839;28;45223;-79
2020/12/23 10:38:11;;;;;;;25.05;16.08;;;;;;;6.87;100.00;98629.41;4939566;28;45655;-79
2020/12/23 10:40:37;;;;;;;22.98;14.82;;;;;;;6.83;100.00;98633.25;4939560;28;45457;-79
2020/12/23 10:43:02;;;;;;;36.10;17.23;;;;;;;6.98;99.45;98628.53;4954359;28;48046;-79
2020/12/23 10:45:28;;;;;;;23.30;14.25;;;;;;;7.02;98.89;98632.59;4939788;28;45392;-80
2020/12/23 10:47:54;;;;;;;23.25;14.73;;;;;;;6.81;98.84;98622.81;4938098;28;45480;-80
2020/12/23 10:50:19;;;;;;;22.17;14.65;;;;;;;6.94;98.70;98617.38;4936298;28;45535;-81
2020/12/23 10:52:45;;;;;;;24.73;15.85;;;;;;;7.11;100.00;98605.44;4938843;28;45776;-80
2020/12/23 10:55:10;;;;;;;21.40;14.85;;;;;;;7.18;99.68;98608.41;4939205;28;45343;-78
2020/12/23 10:57:37;;;;;;;23.25;15.93;;;;;;;6.99;100.00;98609.91;4939176;28;45378;-79
2020/12/23 11:00:05;;;;;;;21.13;14.60;;;;;;;6.89;99.62;98606.34;4935525;28;45572;-79
2020/12/23 11:02:30;;;;;;;20.00;15.25;;;;;;;7.03;99.42;98599.91;4961104;28;48635;-80
2020/12/23 11:04:56;;;;;;;22.25;14.88;;;;;;;7.10;100.00;98593.19;4938611;28;45419;-79
2020/12/23 11:07:21;;;;;;;20.70;13.77;;;;;;;7.17;100.00;98595.31;4954004;28;45395;-80
2020/12/23 11:09:46;;;;;;;24.40;16.58;;;;;;;7.14;100.00;98593.75;4938077;28;45657;-76
2020/12/23 11:12:12;;;;;;;27.10;18.60;;;;;;;7.24;100.00;98585.91;4933759;28;45545;-78
2020/12/23 11:14:37;;;;;;;24.67;17.73;;;;;;;7.22;100.00;98586.03;4938893;28;45578;-76
2020/12/23 11:17:03;;;;;;;26.27;18.02;;;;;;;7.35;100.00;98585.00;4936924;28;45381;-75
2020/12/23 11:19:28;;;;;;;30.65;20.83;;;;;;;6.80;100.00;98584.09;4938583;28;45164;-78
2020/12/23 11:21:54;;;;;;;28.15;19.33;;;;;;;7.06;100.00;98585.59;4953007;28;46596;-77
2020/12/23 11:24:19;;;;;;;24.98;16.55;;;;;;;7.33;98.74;98586.94;4938905;28;45559;-75
2020/12/23 11:26:45;;;;;;;30.90;19.73;;;;;;;7.44;98.38;98581.59;4939065;28;45390;-76
2020/12/23 11:29:11;;;;;;;26.73;19.42;;;;;;;7.57;99.06;98578.78;4937451;28;45470;-76